Reklama

Seznam meteostanic a jejich METAR

Vyhledat místa podle abecedy:
A B C D E F G H I J K L M N O P Q R S T U V W X Y Z

Filtrovat:

ID stanice:
a/nebo
Název místa (fulltext):
 
Místo (ID)Naposledy načteno 
Šerák (Serak) 31.05.2020 03:00 UTC Zobrazit data
Místo: Šerák
Teplota: 1 °C (pocitová: -8.3 °C)
Vítr: 6 m/s z(e) 350°
Počasí: přeháňky
Dohlednost: 200 m
Zákl. oblačnosti: 8/8 30 m
Vlhkost: 100%
Svratouch (Svratouch) 31.05.2020 04:00 UTC Zobrazit data
Místo: Svratouch
Teplota: 7 °C (pocitová: 0.6 °C)
Vítr: 5 m/s z(e) 360°
Počasí: skoro zataženo
Dohlednost: 35 km
Zákl. oblačnosti: 7/8 1800 m
Vlhkost: 76%
Saipan Island (PGSN) 31.05.2020 04:54 UTC Zobrazit METAR
PGSN 310454Z 11012G17KT 10SM FEW028 32/23 A2994 RMK AO2 SLP159 T03170228
Salzburg (LOWS) 31.05.2020 03:50 UTC Zobrazit METAR
LOWS 310350Z AUTO 16004KT 130V190 9999 NSC 04/04 Q1019
Samara (UWWW) Zatím nenačteno  
San Andres Island (SKSP) 31.05.2020 05:00 UTC Zobrazit METAR
SKSP 310500Z VRB02KT 9999 FEW010 OVC080 25/24 A2992
San Jose (MRPV) 31.05.2020 00:00 UTC Zobrazit METAR
MRPV 310000Z 34003KT 9999 -RA FEW010 OVC120 21/19 A3005 NOSIG
San Juan (TJSJ) 31.05.2020 04:56 UTC Zobrazit METAR
TJSJ 310456Z 09007KT 10SM FEW027 26/23 A3001 RMK AO2 SLP162 T02610233 $
San Salvador (MSLP) 31.05.2020 04:50 UTC Zobrazit METAR
MSLP 310450Z 07008KT 040V120 7000 -RA SCT012 OVC042 24/23 Q1009 A2981 TEMPO 5000 RA
Sanaa (OYSN) 08.02.2017 13:00 UTC Zobrazit METAR
OYSN 081300Z 03008KT 9999 FEW030 25/M05 Q1022
Santiago (SCEL) 31.05.2020 05:00 UTC Zobrazit METAR
SCEL 310500Z AUTO 20004KT 170V240 6000 BKN086/// BKN110/// 11/07 Q1019
Santiago (LEST) 31.05.2020 02:00 UTC Zobrazit METAR
LEST 310200Z 00000KT CAVOK 15/14 Q1011 NOSIG
Santo Domingo (MDHE) 08.04.2012 12:00 UTC  
Santorini (LGSR) 30.05.2020 14:50 UTC Zobrazit METAR
LGSR 301450Z 11007KT 9999 FEW018 23/11 Q1016
Sao Tome (FPST) 23.05.2020 12:00 UTC Zobrazit METAR
FPST 231200Z 14006KT 9999 FEW020 BKN040 30/26 Q1014 NOSIG
Sarajevo (LQSA) 30.05.2020 13:00 UTC Zobrazit METAR
LQSA 301300Z 34009KT 300V050 9999 FEW030 SCT045 16/10 Q1016 NOSIG
Saratov (UWSS) 06.03.2017 17:00 UTC Zobrazit METAR
UWSS 061700Z CAVOK 04/00 Q1024 R12/190055 NOSIG RMK QFE756
Sarmellek (LHSM) 31.05.2020 04:45 UTC Zobrazit METAR
LHSM 310445Z AUTO 29005KT 9000 NSC 11/07 Q1016
Seinajoki (EFSI) 31.05.2020 04:50 UTC Zobrazit METAR
EFSI 310450Z AUTO 36004KT 320V030 CAVOK 11/04 Q1032
Seoul/Incheon (RKSI) 31.05.2020 05:00 UTC Zobrazit METAR
RKSI 310500Z 30010KT CAVOK 21/13 Q1010 NOSIG
Seville (LEZL) 31.05.2020 05:00 UTC Zobrazit METAR
LEZL 310500Z AUTO VRB02KT CAVOK 19/08 Q1010
Seychelles (FSIA) 31.05.2020 05:00 UTC Zobrazit METAR
FSIA 310500Z 13008KT 110V180 9999 SCT020 29/24 Q1012 NOSIG
Shymkent (UAII) Zatím nenačteno  
Siauliai (EYSA) 31.05.2020 04:50 UTC Zobrazit METAR
EYSA 310450Z 03014KT CAVOK 13/05 Q1018 BLU NOSIG
Sibiu (LRSB) 31.05.2020 05:00 UTC Zobrazit METAR
LRSB 310500Z 27008KT 9999 SCT047 12/04 Q1011
Simferopol' (UKFF) Zatím nenačteno  
Singapore (WSSS) 31.05.2020 03:00 UTC Zobrazit METAR
WSSS 310300Z 20004KT 150V270 9999 SCT018 BKN350 31/25 Q1013 NOSIG
Skopje (LWSK) 31.05.2020 05:00 UTC Zobrazit METAR
LWSK 310500Z 00000KT 9999 FEW100 11/09 Q1015 NOSIG
Soderhamn (ESNY) Zatím nenačteno  
Sofia (LBSF) 31.05.2020 05:00 UTC Zobrazit METAR
LBSF 310500Z 01003KT 9999 FEW015 SCT033 12/08 Q1015 NOSIG
Sonderborg (EKSB) 30.05.2020 09:50 UTC Zobrazit METAR
EKSB 300950Z 33004KT 290V030 CAVOK 18/09 Q1027
Split (LDSP) 31.05.2020 05:00 UTC Zobrazit METAR
LDSP 310500Z 36007KT CAVOK 15/06 Q1015 NOSIG
St. Denis (FMEE) 31.05.2020 05:00 UTC Zobrazit METAR
FMEE 310500Z AUTO VRB03KT CAVOK 25/16 Q1020 NOSIG
St. Georges (TGPY) 31.05.2020 04:00 UTC Zobrazit METAR
TGPY 310400Z 09015KT 9999 FEW018 28/24 Q1014 NOSIG
St. Johns (TAPA) 31.05.2020 05:00 UTC Zobrazit METAR
TAPA 310500Z 09008KT 040V120 9999 FEW020 27/22 Q1015 NOSIG
St. Petersburg (ULLI) Zatím nenačteno  
St. Pierre Island (LFVP) 29.05.2020 21:00 UTC Zobrazit METAR
LFVP 292100Z 24014KT 2500 BR BKN002 09/08 Q1014 NOSIG
Stavanger (ENZV) 31.05.2020 04:50 UTC Zobrazit METAR
ENZV 310450Z 11003KT CAVOK 14/07 Q1031 NOSIG
Stockholm (ESSA) 31.05.2020 04:50 UTC Zobrazit METAR
ESSA 310450Z 01010KT CAVOK 10/05 Q1031 NOSIG
Strasbourg (LFST) 31.05.2020 05:00 UTC Zobrazit METAR
LFST 310500Z AUTO 35006KT 320V020 CAVOK 12/05 Q1019 NOSIG
Stuttgart (EDDS) 31.05.2020 04:50 UTC Zobrazit METAR
EDDS 310450Z 33004KT CAVOK 10/04 Q1019 NOSIG
Reklama

Lunární kalendář

  • 05.06.Fáze měsíce uplnek
  • 13.06.Fáze měsíce posl_ctvrt
  • 21.06.Fáze měsíce nov
  • 28.06.Fáze měsíce prv_ctvrt



Reklama
Meteodomečky

Počasí na Váš email

Emaily jsou bez reklamy a bez spamu



Odhlásit newsletter

Reklama


Další české internetové stránky (nejen) o počasí najdete v katalogu TOPlist - weby o počasí nebo vyhledejte na internetu, co jste tu na 🌞 Slunečnu ⛅ zatím nenašli:

Reklama